Terminal Aerodrome Forecast
Issued by NWS

Current Version | Previous Version | Text Only | Print | Product List | Glossary On
Versions: 1 2 3 4 5 6 7 8 9 10 11 12 13 14 15 16
000
FTUS42 KMLB 281121
TAFLEE
TAF
KLEE 281121Z 2812/0112 01010KT P6SM SCT008 BKN015 OVC030
      TEMPO 2812/2815 BKN008
     FM281500 05012G18KT 6SM SHRA SCT010 BKN015 OVC030
     FM010100 03010KT 6SM BR SCT005 BKN015 OVC030=

USA.gov is the U.S. government's official web portal to all federal, state and local government web resources and services.